Time;durP1;ratioP1;P1;durP2;ratioP2;P2;SDS_P1;SDS_P2;PMS_P1;PMS_P2;Temp;Humidity;BMP_temperature;BMP_pressure;BME280_temperature;BME280_humidity;BME280_pressure;Samples;Min_cycle;Max_cycle;Signal;HPM_P1;HPM_P2
2023/07/22 00:01:20;;;;;;;;;8.33;8.33;;;;;;;;5142082;27;45241;-73
2023/07/22 00:03:45;;;;;;;;;9.67;8.67;;;;;;;;5141716;27;45128;-73
2023/07/22 00:06:10;;;;;;;;;12.00;10.00;;;;;;;;5141574;27;45460;-73
2023/07/22 00:08:37;;;;;;;;;7.33;7.33;;;;;;;;5141933;27;45228;-73
2023/07/22 00:11:02;;;;;;;;;8.00;8.00;;;;;;;;5141920;27;45291;-73
2023/07/22 00:13:27;;;;;;;;;9.67;9.00;;;;;;;;5122865;27;46111;-73
2023/07/22 00:15:53;;;;;;;;;8.00;8.00;;;;;;;;5141477;27;45328;-73
2023/07/22 00:18:18;;;;;;;;;10.00;10.00;;;;;;;;5141597;27;45343;-73
2023/07/22 00:20:44;;;;;;;;;9.67;9.67;;;;;;;;5141685;27;45316;-73
2023/07/22 00:23:10;;;;;;;;;8.33;8.33;;;;;;;;5122944;27;47121;-73
2023/07/22 00:25:35;;;;;;;;;6.33;6.33;;;;;;;;5141463;27;46975;-73
2023/07/22 00:28:00;;;;;;;;;7.67;7.33;;;;;;;;5122798;27;45309;-73
2023/07/22 00:30:25;;;;;;;;;11.00;11.00;;;;;;;;5123235;27;45461;-73
2023/07/22 00:32:51;;;;;;;;;9.00;8.33;;;;;;;;5120239;27;45596;-73
2023/07/22 00:35:16;;;;;;;;;10.33;9.00;;;;;;;;5101702;27;47487;-73
2023/07/22 00:37:41;;;;;;;;;9.33;8.33;;;;;;;;5120607;27;45283;-73
2023/07/22 00:40:11;;;;;;;;;10.67;8.00;;;;;;;;5120574;27;45304;-73
2023/07/22 00:42:36;;;;;;;;;10.00;9.67;;;;;;;;5120586;27;45321;-73
2023/07/22 00:45:01;;;;;;;;;10.00;10.00;;;;;;;;5120495;27;45401;-73
2023/07/22 00:47:27;;;;;;;;;9.33;8.67;;;;;;;;5101731;27;45498;-73
2023/07/22 00:49:52;;;;;;;;;7.00;7.00;;;;;;;;5124142;27;45350;-73
2023/07/22 00:52:17;;;;;;;;;8.33;8.33;;;;;;;;5123825;27;45534;-73
2023/07/22 00:54:43;;;;;;;;;6.67;6.67;;;;;;;;5123770;27;46885;-73
2023/07/22 00:57:09;;;;;;;;;6.67;6.67;;;;;;;;5124043;27;45282;-73
2023/07/22 00:59:34;;;;;;;;;8.67;8.33;;;;;;;;5124073;27;45362;-73
2023/07/22 01:01:59;;;;;;;;;10.00;10.00;;;;;;;;5123668;27;45272;-72
2023/07/22 01:04:25;;;;;;;;;9.00;8.67;;;;;;;;5123901;27;45415;-73
2023/07/22 01:06:52;;;;;;;;;9.33;9.33;;;;;;;;5105185;27;45702;-73
2023/07/22 01:09:18;;;;;;;;;11.00;8.67;;;;;;;;5105324;27;45296;-73
2023/07/22 01:11:43;;;;;;;;;8.67;8.67;;;;;;;;5123607;27;45262;-73
2023/07/22 01:14:09;;;;;;;;;9.67;8.67;;;;;;;;5123830;27;46421;-73
2023/07/22 01:16:34;;;;;;;;;9.67;8.00;;;;;;;;5104830;27;46235;-73
2023/07/22 01:19:00;;;;;;;;;8.33;7.67;;;;;;;;5105318;27;45346;-73
2023/07/22 01:21:26;;;;;;;;;10.00;10.00;;;;;;;;5123483;27;45198;-73
2023/07/22 01:23:52;;;;;;;;;11.00;10.67;;;;;;;;5123430;27;46198;-73
2023/07/22 01:26:17;;;;;;;;;7.67;7.67;;;;;;;;5123397;27;45295;-73
2023/07/22 01:28:43;;;;;;;;;9.00;9.00;;;;;;;;5126699;27;45460;-73
2023/07/22 01:31:08;;;;;;;;;10.00;10.00;;;;;;;;5124273;27;46244;-73
2023/07/22 01:33:33;;;;;;;;;11.00;11.00;;;;;;;;5144015;27;46353;-73
2023/07/22 01:35:59;;;;;;;;;9.00;9.00;;;;;;;;5143984;27;45246;-72
2023/07/22 01:38:24;;;;;;;;;12.00;10.00;;;;;;;;5144406;27;45573;-73
2023/07/22 01:40:49;;;;;;;;;10.00;8.00;;;;;;;;5125209;27;46932;-73
2023/07/22 01:43:14;;;;;;;;;9.67;9.33;;;;;;;;5144012;27;46085;-73
2023/07/22 01:45:39;;;;;;;;;9.00;8.33;;;;;;;;5125420;27;45412;-73
2023/07/22 01:48:06;;;;;;;;;8.00;8.00;;;;;;;;5143375;27;45408;-73
2023/07/22 01:50:31;;;;;;;;;12.00;9.00;;;;;;;;5124529;27;46455;-72
2023/07/22 01:52:56;;;;;;;;;10.00;9.67;;;;;;;;5124797;27;47425;-73
2023/07/22 01:55:21;;;;;;;;;8.67;8.00;;;;;;;;5143775;27;45223;-73
2023/07/22 01:57:47;;;;;;;;;9.00;9.00;;;;;;;;5143987;27;45156;-73
2023/07/22 02:00:14;;;;;;;;;12.00;12.00;;;;;;;;5142644;27;45534;-73
2023/07/22 02:02:40;;;;;;;;;10.33;9.33;;;;;;;;5143343;27;46454;-73
2023/07/22 02:05:06;;;;;;;;;9.00;8.67;;;;;;;;5124670;27;45264;-73
2023/07/22 02:07:31;;;;;;;;;10.33;10.33;;;;;;;;5143839;27;45389;-73
2023/07/22 02:09:56;;;;;;;;;10.00;10.00;;;;;;;;5143687;27;45460;-73
2023/07/22 02:12:21;;;;;;;;;9.67;9.67;;;;;;;;5124768;27;48523;-73
2023/07/22 02:14:46;;;;;;;;;8.67;8.67;;;;;;;;5117048;27;45322;-72
2023/07/22 02:17:11;;;;;;;;;8.33;8.33;;;;;;;;5122797;27;45619;-73
2023/07/22 02:19:37;;;;;;;;;10.67;9.33;;;;;;;;5122752;27;45325;-72
2023/07/22 02:22:03;;;;;;;;;8.00;8.00;;;;;;;;5122525;27;45463;-72
2023/07/22 02:24:28;;;;;;;;;9.00;9.00;;;;;;;;5122649;27;45223;-73
2023/07/22 02:26:53;;;;;;;;;12.00;10.00;;;;;;;;5104205;27;45531;-72
2023/07/22 02:29:19;;;;;;;;;11.67;11.67;;;;;;;;5131201;27;45415;-73
2023/07/22 02:31:46;;;;;;;;;10.33;9.67;;;;;;;;5143027;27;45285;-73
2023/07/22 02:34:11;;;;;;;;;11.00;10.00;;;;;;;;5143109;27;45213;-73
2023/07/22 02:36:36;;;;;;;;;11.00;11.00;;;;;;;;5143095;27;45397;-72
2023/07/22 02:39:03;;;;;;;;;10.00;10.00;;;;;;;;5143114;27;45333;-72
2023/07/22 02:41:28;;;;;;;;;12.67;12.67;;;;;;;;5142898;27;46338;-72
2023/07/22 02:43:53;;;;;;;;;11.67;11.67;;;;;;;;5142797;27;45334;-72
2023/07/22 02:46:18;;;;;;;;;11.00;10.67;;;;;;;;5143272;27;45158;-73
2023/07/22 02:48:43;;;;;;;;;10.00;9.00;;;;;;;;5142549;27;45432;-72
2023/07/22 02:51:09;;;;;;;;;12.00;12.00;;;;;;;;5142967;27;45305;-73
2023/07/22 02:53:36;;;;;;;;;10.00;9.67;;;;;;;;5143038;27;45302;-73
2023/07/22 02:56:02;;;;;;;;;11.67;11.67;;;;;;;;5124341;27;45303;-72
2023/07/22 02:58:27;;;;;;;;;10.00;10.00;;;;;;;;5142797;27;45251;-72
2023/07/22 03:00:52;;;;;;;;;14.00;14.00;;;;;;;;5124093;27;48490;-73
2023/07/22 03:03:18;;;;;;;;;14.33;14.33;;;;;;;;5142613;27;45320;-73
2023/07/22 03:05:44;;;;;;;;;14.00;12.33;;;;;;;;5142803;27;45408;-72
2023/07/22 03:08:09;;;;;;;;;13.33;13.33;;;;;;;;5142624;27;45430;-73
2023/07/22 03:10:34;;;;;;;;;6.33;6.00;;;;;;;;5142389;27;45438;-72
2023/07/22 03:13:03;;;;;;;;;13.33;13.33;;;;;;;;5142646;27;45620;-72
2023/07/22 03:15:28;;;;;;;;;11.00;11.00;;;;;;;;5142589;27;45315;-73
2023/07/22 03:17:55;;;;;;;;;13.67;12.67;;;;;;;;5142205;27;45302;-72
2023/07/22 03:20:21;;;;;;;;;14.00;14.00;;;;;;;;5142382;27;46434;-73
2023/07/22 03:22:47;;;;;;;;;11.00;10.00;;;;;;;;5142361;27;45368;-72
2023/07/22 03:25:13;;;;;;;;;11.67;11.33;;;;;;;;5142441;27;45281;-73
2023/07/22 03:27:38;;;;;;;;;14.00;12.33;;;;;;;;5142441;27;47208;-72
2023/07/22 03:30:04;;;;;;;;;11.00;11.00;;;;;;;;5126626;27;46026;-72
2023/07/22 03:32:29;;;;;;;;;9.00;9.00;;;;;;;;5121333;27;45310;-72
2023/07/22 03:34:54;;;;;;;;;15.00;14.00;;;;;;;;5121610;27;45321;-72
2023/07/22 03:37:20;;;;;;;;;10.67;10.67;;;;;;;;5121374;27;45472;-72
2023/07/22 03:39:45;;;;;;;;;10.00;10.00;;;;;;;;5121249;27;46353;-73
2023/07/22 03:42:10;;;;;;;;;10.00;10.00;;;;;;;;5121165;27;45287;-72
2023/07/22 03:44:36;;;;;;;;;12.33;12.33;;;;;;;;5121686;27;45317;-72
2023/07/22 03:47:01;;;;;;;;;10.00;9.67;;;;;;;;5102650;27;46308;-72
2023/07/22 03:49:26;;;;;;;;;11.00;11.00;;;;;;;;5121124;27;45270;-72
2023/07/22 03:51:51;;;;;;;;;9.33;9.33;;;;;;;;5121148;27;45330;-72
2023/07/22 03:54:16;;;;;;;;;13.00;12.00;;;;;;;;5121516;27;45194;-72
2023/07/22 03:56:42;;;;;;;;;8.00;8.00;;;;;;;;5121041;27;45298;-72
2023/07/22 03:59:07;;;;;;;;;12.00;11.00;;;;;;;;5120903;27;45244;-72
2023/07/22 04:01:32;;;;;;;;;11.00;10.33;;;;;;;;5120904;27;45265;-73
2023/07/22 04:03:57;;;;;;;;;11.67;10.33;;;;;;;;5121311;27;45363;-72
2023/07/22 04:06:23;;;;;;;;;9.50;9.50;;;;;;;;5120954;27;45416;-72
2023/07/22 04:08:49;;;;;;;;;11.67;11.33;;;;;;;;5120934;27;45897;-72
2023/07/22 04:11:14;;;;;;;;;7.67;7.67;;;;;;;;5121000;27;45278;-73
2023/07/22 04:13:39;;;;;;;;;12.00;11.00;;;;;;;;5121174;27;45187;-73
2023/07/22 04:16:04;;;;;;;;;11.33;11.33;;;;;;;;5120752;27;45491;-73
2023/07/22 04:18:34;;;;;;;;;10.00;9.33;;;;;;;;5120711;27;45337;-72
2023/07/22 04:20:59;;;;;;;;;15.33;12.00;;;;;;;;5120848;27;45339;-72
2023/07/22 04:23:24;;;;;;;;;11.33;11.33;;;;;;;;5122211;27;45265;-72
2023/07/22 04:25:49;;;;;;;;;13.67;11.67;;;;;;;;5105968;27;47309;-72
2023/07/22 04:28:15;;;;;;;;;12.67;11.33;;;;;;;;5124533;27;45334;-72
2023/07/22 04:30:40;;;;;;;;;9.67;9.67;;;;;;;;5144932;27;45351;-73
2023/07/22 04:33:06;;;;;;;;;14.00;12.33;;;;;;;;5145285;27;45478;-72
2023/07/22 04:35:37;;;;;;;;;10.67;10.67;;;;;;;;5145050;27;45283;-72
2023/07/22 04:38:03;;;;;;;;;12.33;11.33;;;;;;;;5145133;27;45298;-73
2023/07/22 04:40:28;;;;;;;;;11.67;10.67;;;;;;;;5126088;27;45310;-72
2023/07/22 04:42:53;;;;;;;;;12.67;11.00;;;;;;;;5145169;27;45283;-72
2023/07/22 04:45:18;;;;;;;;;14.00;14.00;;;;;;;;5126208;27;46802;-72
2023/07/22 04:47:46;;;;;;;;;14.00;12.67;;;;;;;;5144689;27;45401;-72
2023/07/22 04:50:11;;;;;;;;;11.33;10.33;;;;;;;;5145069;27;45202;-73
2023/07/22 04:52:37;;;;;;;;;10.33;10.33;;;;;;;;5144937;27;45252;-72
2023/07/22 04:55:08;;;;;;;;;13.00;13.00;;;;;;;;5144790;27;45292;-72
2023/07/22 04:57:45;;;;;;;;;11.33;11.33;;;;;;;;5144830;27;45283;-72
2023/07/22 05:00:14;;;;;;;;;12.00;12.00;;;;;;;;5144858;27;45380;-72
2023/07/22 05:02:39;;;;;;;;;12.67;12.67;;;;;;;;5144587;27;45308;-73
2023/07/22 05:05:04;;;;;;;;;13.00;12.00;;;;;;;;5144719;27;45487;-72
2023/07/22 05:07:30;;;;;;;;;11.67;11.67;;;;;;;;5144583;27;45235;-72
2023/07/22 05:09:55;;;;;;;;;12.00;11.00;;;;;;;;5144701;27;45247;-72
2023/07/22 05:12:20;;;;;;;;;12.67;11.00;;;;;;;;5144876;27;45316;-72
2023/07/22 05:14:45;;;;;;;;;13.33;13.33;;;;;;;;5144404;27;45476;-72
2023/07/22 05:17:10;;;;;;;;;16.33;15.67;;;;;;;;5144340;27;45204;-73
2023/07/22 05:19:36;;;;;;;;;12.00;11.67;;;;;;;;5125848;27;45210;-73
2023/07/22 05:22:01;;;;;;;;;10.67;10.67;;;;;;;;5144458;27;45396;-72
2023/07/22 05:24:26;;;;;;;;;11.00;11.00;;;;;;;;5144404;27;45477;-72
2023/07/22 05:26:52;;;;;;;;;14.00;12.67;;;;;;;;5125454;27;47094;-73
2023/07/22 05:29:17;;;;;;;;;14.00;12.67;;;;;;;;5116910;27;45980;-73
2023/07/22 05:31:42;;;;;;;;;10.00;10.00;;;;;;;;5123291;27;45290;-72
2023/07/22 05:34:07;;;;;;;;;10.67;9.00;;;;;;;;5123045;27;45255;-73
2023/07/22 05:36:32;;;;;;;;;11.67;9.00;;;;;;;;5122528;27;45349;-73
2023/07/22 05:38:57;;;;;;;;;11.00;11.00;;;;;;;;5122224;27;45369;-73
2023/07/22 05:41:23;;;;;;;;;10.67;10.33;;;;;;;;5123091;27;45435;-72
2023/07/22 05:43:48;;;;;;;;;13.00;13.00;;;;;;;;5123274;27;45452;-72
2023/07/22 05:46:13;;;;;;;;;13.33;13.00;;;;;;;;5123078;27;45957;-72
2023/07/22 05:48:39;;;;;;;;;11.33;11.33;;;;;;;;5104561;27;46256;-74
2023/07/22 05:51:04;;;;;;;;;12.67;11.33;;;;;;;;5104512;27;45341;-74
2023/07/22 05:53:29;;;;;;;;;12.00;12.00;;;;;;;;5123100;27;45647;-72
2023/07/22 05:55:54;;;;;;;;;13.67;12.33;;;;;;;;5122947;27;45451;-73
2023/07/22 05:58:20;;;;;;;;;12.00;11.00;;;;;;;;5104485;27;45567;-74
2023/07/22 06:00:46;;;;;;;;;11.67;11.67;;;;;;;;5122938;27;45310;-74
2023/07/22 06:03:11;;;;;;;;;14.33;13.00;;;;;;;;5122622;27;45312;-74
2023/07/22 06:05:36;;;;;;;;;12.00;10.67;;;;;;;;5122662;27;45332;-74
2023/07/22 06:08:01;;;;;;;;;13.33;13.00;;;;;;;;5123014;27;45232;-74
2023/07/22 06:10:27;;;;;;;;;15.00;14.67;;;;;;;;5122996;27;45486;-74
2023/07/22 06:12:52;;;;;;;;;14.00;12.67;;;;;;;;5122782;27;45422;-74
2023/07/22 06:15:17;;;;;;;;;13.33;11.33;;;;;;;;5104110;27;48341;-74
2023/07/22 06:17:42;;;;;;;;;16.33;15.33;;;;;;;;5104086;27;45311;-74
2023/07/22 06:20:08;;;;;;;;;13.00;13.00;;;;;;;;5122993;27;45251;-74
2023/07/22 06:22:33;;;;;;;;;16.33;14.00;;;;;;;;5102520;27;46330;-73
2023/07/22 06:24:58;;;;;;;;;12.67;12.67;;;;;;;;5121665;27;45254;-74
2023/07/22 06:27:23;;;;;;;;;15.67;14.33;;;;;;;;5111094;27;45273;-74
2023/07/22 06:29:49;;;;;;;;;16.00;15.00;;;;;;;;5116972;27;45349;-74
2023/07/22 06:32:14;;;;;;;;;14.00;14.00;;;;;;;;5143118;27;45449;-74
2023/07/22 06:34:39;;;;;;;;;11.67;11.67;;;;;;;;5143120;27;45275;-74
2023/07/22 06:37:04;;;;;;;;;13.67;13.00;;;;;;;;5143127;27;45415;-74
2023/07/22 06:39:29;;;;;;;;;10.33;10.33;;;;;;;;5143301;27;45252;-73
2023/07/22 06:41:55;;;;;;;;;13.00;13.00;;;;;;;;5142937;27;45530;-75
2023/07/22 06:44:20;;;;;;;;;13.00;13.00;;;;;;;;5143051;27;45167;-76
2023/07/22 06:46:46;;;;;;;;;15.33;11.67;;;;;;;;5142225;27;45178;-74
2023/07/22 06:49:11;;;;;;;;;12.00;12.00;;;;;;;;5142978;27;45499;-75
2023/07/22 06:51:36;;;;;;;;;15.00;14.67;;;;;;;;5142829;27;45423;-76
2023/07/22 06:54:02;;;;;;;;;15.33;14.67;;;;;;;;5142897;27;45394;-75
2023/07/22 06:56:27;;;;;;;;;14.67;13.00;;;;;;;;5142887;27;45295;-75
2023/07/22 06:58:53;;;;;;;;;15.67;15.33;;;;;;;;5124213;27;45337;-75
2023/07/22 07:01:18;;;;;;;;;14.67;14.67;;;;;;;;5121830;27;45296;-75
2023/07/22 07:03:43;;;;;;;;;15.33;14.33;;;;;;;;5121884;27;46199;-75
2023/07/22 07:06:08;;;;;;;;;14.00;13.00;;;;;;;;5121930;27;45378;-75
2023/07/22 07:08:33;;;;;;;;;14.00;14.00;;;;;;;;5122117;27;45339;-76
2023/07/22 07:11:00;;;;;;;;;13.00;12.00;;;;;;;;5103285;27;45775;-76
2023/07/22 07:13:25;;;;;;;;;14.33;11.67;;;;;;;;5112172;27;45456;-75
2023/07/22 07:15:50;;;;;;;;;14.00;13.00;;;;;;;;5119184;27;45442;-75
2023/07/22 07:18:16;;;;;;;;;15.33;13.67;;;;;;;;5121777;27;45264;-75
2023/07/22 07:20:41;;;;;;;;;18.67;13.33;;;;;;;;5121540;27;45341;-73
2023/07/22 07:23:06;;;;;;;;;10.00;10.00;;;;;;;;5121693;27;46284;-74
2023/07/22 07:25:31;;;;;;;;;20.00;17.33;;;;;;;;5121674;27;45178;-74
2023/07/22 07:27:57;;;;;;;;;14.67;13.00;;;;;;;;5103346;27;45469;-75
2023/07/22 07:30:22;;;;;;;;;16.33;13.67;;;;;;;;5139339;27;45370;-75
2023/07/22 07:32:47;;;;;;;;;12.33;12.00;;;;;;;;5142053;27;45346;-75
2023/07/22 07:35:12;;;;;;;;;15.00;12.67;;;;;;;;5123384;27;45360;-75
2023/07/22 07:37:37;;;;;;;;;17.00;15.67;;;;;;;;5123823;27;45964;-75
2023/07/22 07:40:04;;;;;;;;;13.33;11.00;;;;;;;;5142089;27;45297;-76
2023/07/22 07:42:29;;;;;;;;;10.67;10.67;;;;;;;;5142120;27;45580;-75
2023/07/22 07:44:54;;;;;;;;;10.33;9.00;;;;;;;;5142233;27;45255;-75
2023/07/22 07:47:19;;;;;;;;;11.00;10.33;;;;;;;;5123230;27;45313;-75
2023/07/22 07:49:45;;;;;;;;;12.00;10.33;;;;;;;;5141864;27;45476;-75
2023/07/22 07:52:10;;;;;;;;;14.33;13.00;;;;;;;;5116827;27;45342;-75
2023/07/22 07:54:35;;;;;;;;;15.00;14.00;;;;;;;;5107485;27;45354;-75
2023/07/22 07:57:01;;;;;;;;;11.33;11.33;;;;;;;;5082017;27;45207;-75
2023/07/22 07:59:26;;;;;;;;;11.00;10.00;;;;;;;;5101763;27;45977;-77
2023/07/22 08:01:51;;;;;;;;;11.33;11.33;;;;;;;;5120171;27;45260;-75
2023/07/22 08:04:17;;;;;;;;;11.67;11.67;;;;;;;;5114627;27;45765;-75
2023/07/22 08:06:42;;;;;;;;;10.33;10.33;;;;;;;;5109855;27;45471;-73
2023/07/22 08:09:10;;;;;;;;;12.00;10.00;;;;;;;;5110113;27;45391;-73
2023/07/22 08:11:35;;;;;;;;;8.33;8.33;;;;;;;;5109252;27;45335;-73
2023/07/22 08:14:01;;;;;;;;;12.33;10.33;;;;;;;;5099876;27;45349;-75
2023/07/22 08:16:26;;;;;;;;;19.67;18.33;;;;;;;;5080645;27;45307;-73
2023/07/22 08:18:52;;;;;;;;;13.00;12.00;;;;;;;;5110831;27;46041;-73
2023/07/22 08:21:17;;;;;;;;;10.33;10.00;;;;;;;;5111132;27;46012;-73
2023/07/22 08:23:45;;;;;;;;;8.33;7.67;;;;;;;;5113498;27;45370;-76
2023/07/22 08:26:10;;;;;;;;;14.67;13.00;;;;;;;;5113056;27;45330;-76
2023/07/22 08:28:36;;;;;;;;;8.00;8.00;;;;;;;;5108479;27;45366;-75
2023/07/22 08:31:01;;;;;;;;;12.00;11.00;;;;;;;;5102036;27;47201;-76
2023/07/22 08:33:26;;;;;;;;;8.00;8.00;;;;;;;;5101900;27;45392;-76
2023/07/22 08:35:52;;;;;;;;;12.00;12.00;;;;;;;;5117189;27;45410;-76
2023/07/22 08:38:17;;;;;;;;;13.33;12.33;;;;;;;;5104235;27;46104;-73
2023/07/22 08:40:42;;;;;;;;;11.00;9.67;;;;;;;;5115166;27;46338;-76
2023/07/22 08:43:09;;;;;;;;;10.67;10.33;;;;;;;;5110532;27;45797;-74
2023/07/22 08:45:36;;;;;;;;;12.33;11.00;;;;;;;;5096495;27;45500;-75
2023/07/22 08:48:04;;;;;;;;;9.67;9.00;;;;;;;;5117614;27;45735;-73
2023/07/22 08:50:30;;;;;;;;;9.67;9.33;;;;;;;;5099211;27;46995;-73
2023/07/22 08:52:56;;;;;;;;;9.00;7.33;;;;;;;;5093837;27;45291;-73
2023/07/22 08:55:23;;;;;;;;;11.67;11.67;;;;;;;;5107320;27;45511;-74
2023/07/22 08:57:48;;;;;;;;;10.33;9.67;;;;;;;;5098069;27;45550;-74
2023/07/22 09:00:14;;;;;;;;;8.50;8.50;;;;;;;;5117734;27;46311;-74
2023/07/22 09:02:40;;;;;;;;;10.00;8.67;;;;;;;;5106279;27;45291;-74
2023/07/22 09:05:05;;;;;;;;;9.67;8.67;;;;;;;;5113057;27;45725;-75
2023/07/22 09:07:31;;;;;;;;;9.33;9.33;;;;;;;;5099751;27;46987;-75
2023/07/22 09:09:57;;;;;;;;;11.00;9.33;;;;;;;;5099877;27;45396;-74
2023/07/22 09:12:22;;;;;;;;;8.67;8.67;;;;;;;;5115157;27;45467;-73
2023/07/22 09:14:49;;;;;;;;;9.00;8.67;;;;;;;;5111985;27;45605;-73
2023/07/22 09:17:14;;;;;;;;;9.33;9.33;;;;;;;;5103906;27;46889;-74
2023/07/22 09:19:40;;;;;;;;;10.00;10.00;;;;;;;;5104022;27;46907;-74
2023/07/22 09:22:05;;;;;;;;;8.00;8.00;;;;;;;;5100722;27;45299;-73
2023/07/22 09:24:30;;;;;;;;;7.67;7.67;;;;;;;;5119889;27;45226;-73
2023/07/22 09:26:56;;;;;;;;;8.00;8.00;;;;;;;;5104142;27;45356;-73
2023/07/22 09:29:32;;;;;;;;;9.00;9.00;;;;;;;;5111626;27;47173;-73
2023/07/22 09:31:57;;;;;;;;;8.00;7.33;;;;;;;;5123808;27;45913;-73
2023/07/22 09:34:25;;;;;;;;;11.00;10.00;;;;;;;;5125485;27;45418;-73
2023/07/22 09:36:50;;;;;;;;;9.67;9.00;;;;;;;;5125300;27;45501;-73
2023/07/22 09:39:15;;;;;;;;;16.00;11.33;;;;;;;;5125265;27;47736;-73
2023/07/22 09:41:41;;;;;;;;;25.00;17.33;;;;;;;;5125279;27;45333;-74
2023/07/22 09:44:09;;;;;;;;;8.67;8.67;;;;;;;;5125815;27;45329;-73
2023/07/22 09:46:34;;;;;;;;;12.00;10.67;;;;;;;;5121843;27;46806;-73
2023/07/22 09:49:02;;;;;;;;;9.00;8.33;;;;;;;;5104438;27;47546;-73
2023/07/22 09:51:33;;;;;;;;;8.67;8.00;;;;;;;;5105862;27;45342;-73
2023/07/22 09:54:02;;;;;;;;;8.33;8.33;;;;;;;;5104801;27;45376;-73
2023/07/22 09:56:27;;;;;;;;;10.33;10.33;;;;;;;;5106203;27;45942;-74
2023/07/22 09:58:52;;;;;;;;;9.00;9.00;;;;;;;;5104799;27;46673;-73
2023/07/22 10:01:25;;;;;;;;;11.67;11.33;;;;;;;;5106483;27;45429;-73
2023/07/22 10:03:56;;;;;;;;;8.33;7.00;;;;;;;;5109179;27;45510;-73
2023/07/22 10:06:24;;;;;;;;;10.67;10.00;;;;;;;;5100761;27;47225;-75
2023/07/22 10:08:49;;;;;;;;;11.00;10.33;;;;;;;;5094482;27;45451;-73
2023/07/22 10:11:14;;;;;;;;;9.33;8.67;;;;;;;;5091770;27;45278;-73
2023/07/22 10:13:39;;;;;;;;;11.00;9.33;;;;;;;;5090222;27;45317;-73
2023/07/22 10:16:05;;;;;;;;;10.67;9.33;;;;;;;;5093070;27;45406;-73
2023/07/22 10:18:31;;;;;;;;;11.33;10.67;;;;;;;;5098343;27;45499;-74
2023/07/22 10:20:57;;;;;;;;;10.33;8.00;;;;;;;;5089548;27;45441;-73
2023/07/22 10:23:24;;;;;;;;;11.33;9.67;;;;;;;;5087273;27;45251;-73
2023/07/22 10:25:51;;;;;;;;;12.00;11.33;;;;;;;;5086468;27;47043;-73
2023/07/22 10:28:16;;;;;;;;;9.67;9.67;;;;;;;;5086420;27;47396;-74
2023/07/22 10:30:42;;;;;;;;;8.33;8.33;;;;;;;;5107603;27;45263;-74
2023/07/22 10:33:08;;;;;;;;;9.67;9.00;;;;;;;;5107075;27;45353;-74
2023/07/22 10:35:33;;;;;;;;;18.00;18.00;;;;;;;;5090063;27;46066;-76
2023/07/22 10:38:12;;;;;;;;;9.67;9.67;;;;;;;;5094484;27;46909;-74
2023/07/22 10:40:50;;;;;;;;;13.00;12.33;;;;;;;;5119030;27;45355;-78
2023/07/22 10:43:19;;;;;;;;;14.00;14.00;;;;;;;;5114463;27;45237;-77
2023/07/22 10:45:52;;;;;;;;;7.00;7.00;;;;;;;;5099001;27;45860;-73
2023/07/22 10:48:17;;;;;;;;;10.33;10.33;;;;;;;;5093331;27;47235;-73
2023/07/22 10:50:44;;;;;;;;;11.67;10.67;;;;;;;;5115474;27;45236;-74
2023/07/22 10:53:25;;;;;;;;;10.00;10.00;;;;;;;;5089155;27;45329;-73
2023/07/22 10:56:19;;;;;;;;;12.00;11.33;;;;;;;;5095637;27;44989;-74
2023/07/22 10:58:44;;;;;;;;;9.67;9.67;;;;;;;;5103296;27;46279;-74
2023/07/22 11:01:24;;;;;;;;;8.00;8.00;;;;;;;;5106358;27;45359;-73
2023/07/22 11:04:15;;;;;;;;;7.67;7.67;;;;;;;;5093498;27;45307;-74
2023/07/22 11:06:44;;;;;;;;;8.00;7.33;;;;;;;;5111552;27;45348;-76
2023/07/22 11:09:30;;;;;;;;;7.67;7.67;;;;;;;;5114377;27;45478;-73
2023/07/22 11:11:58;;;;;;;;;9.67;9.67;;;;;;;;5097604;27;45420;-73
2023/07/22 11:14:33;;;;;;;;;10.00;7.67;;;;;;;;5124368;27;45333;-74
2023/07/22 11:17:00;;;;;;;;;7.00;7.00;;;;;;;;5120090;27;45307;-74
2023/07/22 11:19:26;;;;;;;;;4.00;3.00;;;;;;;;5102920;27;47631;-73
2023/07/22 11:21:52;;;;;;;;;9.67;8.67;;;;;;;;5120101;27;44645;-73
2023/07/22 11:24:17;;;;;;;;;10.00;10.00;;;;;;;;5121265;27;45882;-74
2023/07/22 11:26:44;;;;;;;;;10.33;9.67;;;;;;;;5120958;27;45215;-73
2023/07/22 11:29:09;;;;;;;;;11.33;10.67;;;;;;;;5134281;27;45294;-74
2023/07/22 11:31:42;;;;;;;;;11.00;11.00;;;;;;;;5140590;27;45409;-74
2023/07/22 11:34:07;;;;;;;;;9.33;9.33;;;;;;;;5131771;27;45317;-74
2023/07/22 11:36:34;;;;;;;;;10.33;9.00;;;;;;;;5127347;27;45353;-74
2023/07/22 11:39:07;;;;;;;;;8.67;8.67;;;;;;;;5106232;27;47138;-73
2023/07/22 11:41:33;;;;;;;;;10.33;10.33;;;;;;;;5109459;27;45317;-74
2023/07/22 11:43:59;;;;;;;;;10.00;8.33;;;;;;;;5127555;27;45265;-74
2023/07/22 11:46:25;;;;;;;;;9.67;8.67;;;;;;;;5122716;27;45230;-74
2023/07/22 11:48:51;;;;;;;;;9.00;8.00;;;;;;;;5123540;27;45412;-74
2023/07/22 11:51:17;;;;;;;;;6.00;6.00;;;;;;;;5121632;27;45201;-74
2023/07/22 11:53:43;;;;;;;;;7.67;7.67;;;;;;;;5121256;27;45299;-74
2023/07/22 11:56:08;;;;;;;;;9.67;9.67;;;;;;;;5121221;27;45625;-74
2023/07/22 11:58:35;;;;;;;;;9.67;9.67;;;;;;;;5121079;27;45627;-74
2023/07/22 12:01:08;;;;;;;;;9.33;9.00;;;;;;;;5120890;27;45410;-74
2023/07/22 12:03:33;;;;;;;;;9.00;9.00;;;;;;;;5102468;27;45281;-73
2023/07/22 12:06:02;;;;;;;;;9.67;9.33;;;;;;;;5120828;27;45334;-74
2023/07/22 12:08:28;;;;;;;;;11.00;11.00;;;;;;;;5120577;27;46239;-74
2023/07/22 12:10:59;;;;;;;;;10.00;9.00;;;;;;;;5120448;27;45286;-74
2023/07/22 12:13:25;;;;;;;;;8.33;8.33;;;;;;;;5121171;27;45319;-74
2023/07/22 12:16:00;;;;;;;;;6.67;6.67;;;;;;;;5101704;27;46219;-75
2023/07/22 12:18:25;;;;;;;;;6.33;6.33;;;;;;;;5101386;27;47104;-74
2023/07/22 12:20:50;;;;;;;;;7.67;6.67;;;;;;;;5120270;27;45396;-74
2023/07/22 12:23:16;;;;;;;;;8.00;6.67;;;;;;;;5121056;27;45215;-75
2023/07/22 12:25:41;;;;;;;;;6.00;6.00;;;;;;;;5120681;27;45299;-75
2023/07/22 12:28:07;;;;;;;;;8.00;7.33;;;;;;;;5121207;27;46035;-75
2023/07/22 12:30:33;;;;;;;;;8.67;8.67;;;;;;;;5140243;27;45325;-75
2023/07/22 12:32:58;;;;;;;;;7.33;7.33;;;;;;;;5141368;27;45604;-74
2023/07/22 12:35:23;;;;;;;;;5.00;5.00;;;;;;;;5141147;27;45293;-74
2023/07/22 12:37:48;;;;;;;;;10.33;9.67;;;;;;;;5141249;27;46188;-74
2023/07/22 12:40:13;;;;;;;;;8.00;8.00;;;;;;;;5122453;27;45703;-76
2023/07/22 12:42:40;;;;;;;;;7.67;7.67;;;;;;;;5141158;27;45226;-75
2023/07/22 12:45:05;;;;;;;;;7.67;7.67;;;;;;;;5143343;27;45462;-74
2023/07/22 12:47:31;;;;;;;;;10.33;9.33;;;;;;;;5144624;27;46044;-74
2023/07/22 12:49:56;;;;;;;;;8.33;7.67;;;;;;;;5145197;27;45201;-75
2023/07/22 12:52:21;;;;;;;;;9.00;9.00;;;;;;;;5145106;27;45496;-75
2023/07/22 12:54:46;;;;;;;;;7.00;7.00;;;;;;;;5144971;27;45521;-75
2023/07/22 12:57:11;;;;;;;;;8.67;8.67;;;;;;;;5144807;27;45369;-75
2023/07/22 12:59:36;;;;;;;;;8.00;8.00;;;;;;;;5144544;27;45265;-75
2023/07/22 13:02:02;;;;;;;;;8.00;8.00;;;;;;;;5144570;27;45267;-75
2023/07/22 13:04:27;;;;;;;;;9.00;8.67;;;;;;;;5144791;27;45614;-75
2023/07/22 13:06:52;;;;;;;;;7.00;7.00;;;;;;;;5144662;27;46008;-75
2023/07/22 13:09:18;;;;;;;;;8.67;8.00;;;;;;;;5126184;27;45356;-75
2023/07/22 13:11:43;;;;;;;;;7.00;7.00;;;;;;;;5126022;27;45450;-75
2023/07/22 13:14:08;;;;;;;;;7.67;7.67;;;;;;;;5125823;27;47037;-74
2023/07/22 13:16:34;;;;;;;;;7.00;7.00;;;;;;;;5144396;27;45949;-74
2023/07/22 13:19:00;;;;;;;;;9.00;7.67;;;;;;;;5125798;27;45283;-75
2023/07/22 13:21:25;;;;;;;;;7.33;6.67;;;;;;;;5144390;27;45320;-75
2023/07/22 13:23:51;;;;;;;;;6.00;5.67;;;;;;;;5143451;27;45297;-76
2023/07/22 13:26:16;;;;;;;;;10.67;9.33;;;;;;;;5143184;27;46269;-73
2023/07/22 13:28:41;;;;;;;;;7.33;7.33;;;;;;;;5119651;27;45472;-74
2023/07/22 13:31:06;;;;;;;;;6.67;6.00;;;;;;;;5104243;27;45392;-74
2023/07/22 13:33:31;;;;;;;;;8.33;8.33;;;;;;;;5123557;27;45393;-73
2023/07/22 13:35:57;;;;;;;;;5.00;5.00;;;;;;;;5104622;27;47433;-74
2023/07/22 13:38:22;;;;;;;;;6.33;6.33;;;;;;;;5123507;27;45244;-74
2023/07/22 13:40:47;;;;;;;;;6.33;6.00;;;;;;;;5123301;27;45260;-73
2023/07/22 13:43:12;;;;;;;;;6.33;6.33;;;;;;;;5104637;27;46079;-73
2023/07/22 13:45:37;;;;;;;;;7.67;5.33;;;;;;;;5122851;27;46378;-75
2023/07/22 13:48:03;;;;;;;;;5.67;5.67;;;;;;;;5122779;27;45263;-74
2023/07/22 13:50:28;;;;;;;;;7.67;5.33;;;;;;;;5123274;27;45176;-75
2023/07/22 13:52:53;;;;;;;;;0.00;0.00;;;;;;;;5104544;27;47518;-75
2023/07/22 13:55:18;;;;;;;;;7.00;7.00;;;;;;;;5121968;27;45324;-74
2023/07/22 13:57:44;;;;;;;;;6.67;6.67;;;;;;;;5122791;27;45332;-74
2023/07/22 14:00:10;;;;;;;;;6.33;6.00;;;;;;;;5123331;27;45186;-74
2023/07/22 14:02:35;;;;;;;;;8.00;8.00;;;;;;;;5122874;27;45405;-74
2023/07/22 14:05:01;;;;;;;;;7.33;7.33;;;;;;;;5104133;27;47568;-74
2023/07/22 14:07:26;;;;;;;;;7.67;7.33;;;;;;;;5122874;27;45301;-74
2023/07/22 14:09:53;;;;;;;;;9.00;8.33;;;;;;;;5122962;27;45195;-74
2023/07/22 14:12:18;;;;;;;;;6.33;6.33;;;;;;;;5104157;27;47331;-76
2023/07/22 14:14:43;;;;;;;;;6.00;4.67;;;;;;;;5103962;27;47247;-74
2023/07/22 14:17:08;;;;;;;;;4.67;4.67;;;;;;;;5122666;27;45452;-75
2023/07/22 14:19:33;;;;;;;;;5.00;5.00;;;;;;;;5104317;27;45461;-74
2023/07/22 14:21:58;;;;;;;;;8.00;6.33;;;;;;;;5121616;27;45366;-74